This is the latest recevied weather packets stored in our database for station/object W8LMG. If no packets are shown the sender has not sent any weather packets the latest 10 day(s).
| Time | Temp. | Humidity | Pressure | Rain* | Wind** | Luminosity | Snow |
|---|---|---|---|---|---|---|---|
| 1777829822 | 12.22° C | 31% | 1017.5 hPa | 0 mm | - | 577 W/m² | - |
| 1777829518 | 11.67° C | 40% | 1017.7 hPa | 0 mm | - | 318 W/m² | - |
| 1777829215 | 11.67° C | 38% | 1017.6 hPa | 0 mm | - | 275 W/m² | - |
| 1777828912 | 11.11° C | 34% | 1017.6 hPa | 0 mm | - | 566 W/m² | - |
| 1777828609 | 11.67° C | 34% | 1017.8 hPa | 0 mm | - | 224 W/m² | - |
| 1777828306 | 11.67° C | 33% | 1017.6 hPa | 0 mm | - | 207 W/m² | - |
| 1777828003 | 11.11° C | 33% | 1017.8 hPa | 0 mm | - | 269 W/m² | - |
| 1777827700 | 10.56° C | 39% | 1017.7 hPa | 0 mm | - | 191 W/m² | - |
| 1777827397 | 10.56° C | 35% | 1017.8 hPa | 0 mm | - | 330 W/m² | - |
| 1777827093 | 10° C | 34% | 1018.1 hPa | 0 mm | - | 90 W/m² | - |
| 1777826790 | 10.56° C | 34% | 1018.1 hPa | 0 mm | - | 266 W/m² | - |
| 1777826487 | 10.56° C | 39% | 1018 hPa | 0 mm | - | 300 W/m² | - |
| 1777826184 | 10.56° C | 35% | 1018.2 hPa | 0 mm | - | 393 W/m² | - |
| 1777825881 | 10° C | 34% | 1018.2 hPa | 0 mm | - | 270 W/m² | - |
| 1777825578 | 10° C | 35% | 1018.2 hPa | 0 mm | - | 396 W/m² | - |
| 1777825276 | 9.44° C | 44% | 1018.2 hPa | 0 mm | - | 217 W/m² | - |
| 1777824973 | 9.44° C | 40% | 1018.6 hPa | 0 mm | - | 171 W/m² | - |
| 1777824668 | 10° C | 39% | 1018.5 hPa | 0 mm | - | 78 W/m² | - |
| 1777824366 | 10° C | 37% | 1018.5 hPa | 0 mm | - | 182 W/m² | - |
| 1777824067 | 9.44° C | 38% | 1018.5 hPa | 0 mm | - | 247 W/m² | - |
| 1777823764 | 9.44° C | 41% | 1018.9 hPa | 0 mm | - | 53 W/m² | - |
| 1777823461 | 9.44° C | 38% | 1018.8 hPa | 0 mm | - | 366 W/m² | - |
| 1777823158 | 9.44° C | 39% | 1018.8 hPa | 0 mm | - | 347 W/m² | - |
| 1777822855 | 8.89° C | 46% | 1018.7 hPa | 0 mm | - | 281 W/m² | - |
| 1777822553 | 9.44° C | 41% | 1019 hPa | 0 mm | - | 546 W/m² | - |
* Rain latest hour (hover to see other rain measurements)
** Current wind speed in m/s (hover to see current wind gust speed)